createdAt,value
2019-03-26T00:01:47.403Z,5.27
2019-03-26T00:04:12.953Z,3.77
2019-03-26T00:06:38.646Z,4.47
2019-03-26T00:09:05.377Z,5.00
2019-03-26T00:11:30.908Z,4.67
2019-03-26T00:13:57.835Z,5.03
2019-03-26T00:16:23.524Z,4.63
2019-03-26T00:18:49.315Z,7.27
2019-03-26T00:21:14.968Z,5.47
2019-03-26T00:23:40.477Z,4.80
2019-03-26T00:26:06.018Z,4.27
2019-03-26T00:28:31.555Z,4.10
2019-03-26T00:30:57.139Z,4.03
2019-03-26T00:33:35.415Z,3.83
2019-03-26T00:35:50.095Z,4.57
2019-03-26T00:38:15.650Z,4.63
2019-03-26T00:40:41.197Z,4.13
2019-03-26T00:43:06.720Z,4.57
2019-03-26T00:45:32.793Z,3.80
2019-03-26T00:47:58.366Z,4.60
2019-03-26T00:50:24.151Z,4.93
2019-03-26T00:52:49.877Z,3.70
2019-03-26T00:55:22.582Z,2.53
2019-03-26T00:57:43.867Z,3.60
2019-03-26T01:00:10.004Z,4.30
2019-03-26T01:02:36.543Z,4.00
2019-03-26T01:05:03.212Z,3.87
2019-03-26T01:07:28.755Z,3.90
2019-03-26T01:09:54.287Z,3.70
2019-03-26T01:12:19.820Z,3.60
2019-03-26T01:14:45.339Z,5.10
2019-03-26T01:17:10.906Z,4.10
2019-03-26T01:19:36.431Z,4.67
2019-03-26T01:22:02.225Z,3.57
2019-03-26T01:24:27.810Z,4.10
2019-03-26T01:26:53.371Z,3.67
2019-03-26T01:29:18.916Z,4.17
2019-03-26T01:31:44.512Z,3.67
2019-03-26T01:34:10.043Z,3.10
2019-03-26T01:36:35.673Z,3.53
2019-03-26T01:39:01.214Z,4.40
2019-03-26T01:41:26.743Z,3.07
2019-03-26T01:43:52.639Z,4.03
2019-03-26T01:46:18.303Z,2.50
2019-03-26T01:48:43.939Z,3.20
2019-03-26T01:51:09.684Z,3.40
2019-03-26T01:53:35.339Z,3.33
2019-03-26T01:56:00.860Z,3.73
2019-03-26T01:58:26.424Z,3.47
2019-03-26T02:00:52.011Z,4.60
2019-03-26T02:03:17.903Z,3.60
2019-03-26T02:05:43.543Z,3.60
2019-03-26T02:08:09.263Z,4.20
2019-03-26T02:10:34.986Z,3.30
2019-03-26T02:13:00.511Z,3.77
2019-03-26T02:15:26.880Z,3.50
2019-03-26T02:17:52.511Z,3.60
2019-03-26T02:20:18.171Z,4.53
2019-03-26T02:22:43.698Z,3.20
2019-03-26T02:25:09.218Z,3.37
2019-03-26T02:27:34.923Z,3.53
2019-03-26T02:30:00.471Z,3.53
2019-03-26T02:32:26.098Z,4.07
2019-03-26T02:34:51.808Z,3.63
2019-03-26T02:37:17.355Z,3.83
2019-03-26T02:39:43.980Z,3.50
2019-03-26T02:42:09.538Z,4.70
2019-03-26T02:44:35.071Z,3.80
2019-03-26T02:47:00.628Z,3.80
2019-03-26T02:49:26.261Z,4.00
2019-03-26T02:51:51.886Z,4.23
2019-03-26T02:54:17.651Z,3.87
2019-03-26T02:56:43.178Z,4.80
2019-03-26T02:59:08.725Z,4.10
2019-03-26T03:01:34.267Z,3.77
2019-03-26T03:03:59.979Z,4.53
2019-03-26T03:06:25.495Z,3.90
2019-03-26T03:08:51.019Z,3.57
2019-03-26T03:11:16.577Z,4.40
2019-03-26T03:13:42.165Z,5.00
2019-03-26T03:16:07.772Z,4.20
2019-03-26T03:18:33.461Z,3.33
2019-03-26T03:20:59.059Z,4.13
2019-03-26T03:23:24.654Z,3.70
2019-03-26T03:25:50.296Z,4.20
2019-03-26T03:28:15.914Z,4.53
2019-03-26T03:30:41.537Z,3.70
2019-03-26T03:33:07.159Z,3.33
2019-03-26T03:35:50.695Z,4.37
2019-03-26T03:38:01.152Z,3.70
2019-03-26T03:40:26.660Z,4.33
2019-03-26T03:42:52.186Z,4.13
2019-03-26T03:45:19.903Z,3.67
2019-03-26T03:47:46.654Z,3.73
2019-03-26T03:50:12.300Z,3.03
2019-03-26T03:52:37.963Z,4.23
2019-03-26T03:55:05.033Z,3.67
2019-03-26T03:57:30.670Z,4.23
2019-03-26T03:59:56.512Z,4.27
2019-03-26T04:02:22.157Z,3.77
2019-03-26T04:04:47.719Z,3.20
2019-03-26T04:07:13.276Z,4.00
2019-03-26T04:09:38.851Z,3.70
2019-03-26T04:12:04.384Z,4.57
2019-03-26T04:14:29.939Z,4.10
2019-03-26T04:16:55.701Z,3.90
2019-03-26T04:19:21.225Z,3.63
2019-03-26T04:21:46.749Z,4.37
2019-03-26T04:24:12.440Z,3.93
2019-03-26T04:26:38.032Z,3.90
2019-03-26T04:29:03.581Z,3.60
2019-03-26T04:31:29.247Z,3.77
2019-03-26T04:33:54.771Z,4.43
2019-03-26T04:36:26.062Z,4.83
2019-03-26T04:38:48.803Z,9.77
2019-03-26T04:41:14.418Z,15.13
2019-03-26T04:43:39.972Z,3.83
2019-03-26T04:46:05.517Z,4.33
2019-03-26T04:48:31.027Z,5.23
2019-03-26T04:50:56.656Z,3.20
2019-03-26T04:53:22.221Z,4.23
2019-03-26T04:55:47.757Z,4.20
2019-03-26T04:58:13.327Z,4.80
2019-03-26T05:00:38.869Z,5.07
2019-03-26T05:03:04.442Z,5.73
2019-03-26T05:05:29.960Z,3.83
2019-03-26T05:07:55.497Z,4.57
2019-03-26T05:10:21.047Z,3.87
2019-03-26T05:12:46.575Z,3.87
2019-03-26T05:15:12.332Z,3.30
2019-03-26T05:17:37.968Z,3.30
2019-03-26T05:20:04.615Z,3.63
2019-03-26T05:22:30.191Z,3.23
2019-03-26T05:24:55.752Z,3.40
2019-03-26T05:27:21.267Z,3.43
2019-03-26T05:29:46.855Z,3.20
2019-03-26T05:32:12.571Z,3.33
2019-03-26T05:34:38.139Z,4.30
2019-03-26T05:37:03.743Z,5.53
2019-03-26T05:39:29.617Z,4.50
2019-03-26T05:41:55.225Z,3.73
2019-03-26T05:44:20.769Z,3.27
2019-03-26T05:46:46.330Z,3.47
2019-03-26T05:49:11.878Z,2.90
2019-03-26T05:51:57.570Z,3.13
2019-03-26T05:54:24.222Z,3.30
2019-03-26T05:56:49.772Z,2.60
2019-03-26T05:59:15.455Z,3.70
2019-03-26T06:01:41.188Z,2.73
2019-03-26T06:04:06.863Z,3.60
2019-03-26T06:06:33.572Z,2.93
2019-03-26T06:08:59.121Z,3.17
2019-03-26T06:11:24.688Z,2.53
2019-03-26T06:13:50.281Z,2.60
2019-03-26T06:16:15.818Z,2.70
2019-03-26T06:18:41.372Z,2.80
2019-03-26T06:21:06.619Z,2.63
2019-03-26T06:23:32.559Z,2.47
2019-03-26T06:25:58.537Z,3.17
2019-03-26T06:28:26.042Z,3.30
2019-03-26T06:30:51.601Z,3.60
2019-03-26T06:33:18.352Z,3.20
2019-03-26T06:35:43.993Z,3.20
2019-03-26T06:38:09.571Z,3.30
2019-03-26T06:40:35.462Z,2.87
2019-03-26T06:43:01.256Z,3.40
2019-03-26T06:45:26.815Z,3.47
2019-03-26T06:47:53.395Z,3.30
2019-03-26T06:50:19.022Z,2.93
2019-03-26T06:52:44.576Z,3.67
2019-03-26T06:55:10.239Z,3.40
2019-03-26T06:57:36.187Z,3.93
2019-03-26T07:00:02.661Z,3.57
2019-03-26T07:02:29.323Z,4.03
2019-03-26T07:04:54.969Z,4.30
2019-03-26T07:07:31.420Z,3.37
2019-03-26T07:09:51.152Z,3.80
2019-03-26T07:12:16.888Z,4.07
2019-03-26T07:14:42.491Z,3.87
2019-03-26T07:17:08.073Z,4.07
2019-03-26T07:19:33.757Z,2.90
2019-03-26T07:21:59.482Z,3.70
2019-03-26T07:24:25.092Z,3.23
2019-03-26T07:26:50.723Z,3.57
2019-03-26T07:29:16.320Z,3.00
2019-03-26T07:31:41.969Z,3.73
2019-03-26T07:34:07.595Z,4.70
2019-03-26T07:36:33.225Z,3.77
2019-03-26T07:38:58.990Z,3.50
2019-03-26T07:41:24.577Z,3.60
2019-03-26T07:43:50.150Z,3.33
2019-03-26T07:46:15.772Z,2.90
2019-03-26T07:48:41.513Z,3.30
2019-03-26T07:51:07.127Z,3.70
2019-03-26T07:53:32.699Z,3.50
2019-03-26T07:55:58.369Z,3.60
2019-03-26T07:58:23.901Z,3.47
2019-03-26T08:00:49.683Z,4.17
2019-03-26T08:03:15.183Z,3.60
2019-03-26T08:05:40.506Z,4.43
2019-03-26T08:08:07.103Z,3.50
2019-03-26T08:10:32.927Z,2.70
2019-03-26T08:12:58.495Z,3.53
2019-03-26T08:15:24.085Z,3.50
2019-03-26T08:17:50.627Z,3.27
2019-03-26T08:20:16.152Z,3.50
2019-03-26T08:22:41.791Z,3.17
2019-03-26T08:25:07.237Z,2.83
2019-03-26T08:27:32.438Z,4.80
2019-03-26T08:29:57.951Z,4.13
2019-03-26T08:32:23.821Z,4.73
2019-03-26T08:34:49.385Z,2.90
2019-03-26T08:37:14.612Z,3.87
2019-03-26T08:39:40.438Z,3.70
2019-03-26T08:42:06.742Z,3.47
2019-03-26T08:44:32.290Z,3.60
2019-03-26T08:46:57.592Z,3.27
2019-03-26T08:49:22.774Z,2.70
2019-03-26T08:51:47.983Z,3.10
2019-03-26T08:54:13.415Z,3.00
2019-03-26T08:56:38.753Z,3.93
2019-03-26T08:59:03.964Z,2.60
2019-03-26T09:01:29.247Z,2.80
2019-03-26T09:03:54.468Z,2.67
2019-03-26T09:06:19.991Z,2.30
2019-03-26T09:08:45.606Z,2.77
2019-03-26T09:11:11.131Z,2.80
2019-03-26T09:13:36.811Z,3.57
2019-03-26T09:16:05.307Z,3.10
2019-03-26T09:18:30.902Z,2.67
2019-03-26T09:20:57.296Z,3.40
2019-03-26T09:23:23.120Z,2.23
2019-03-26T09:25:48.881Z,2.57
2019-03-26T09:28:14.822Z,2.10
2019-03-26T09:30:40.387Z,3.93
2019-03-26T09:33:05.920Z,2.57
2019-03-26T09:35:31.736Z,3.00
2019-03-26T09:37:57.483Z,2.60
2019-03-26T09:40:23.491Z,3.03
2019-03-26T09:42:49.119Z,2.93
2019-03-26T09:45:14.831Z,2.90
2019-03-26T09:47:40.485Z,2.93
2019-03-26T09:50:07.303Z,2.73
2019-03-26T09:52:32.844Z,3.63
2019-03-26T09:54:58.431Z,3.40
2019-03-26T09:57:23.992Z,3.00
2019-03-26T09:59:49.518Z,2.87
2019-03-26T10:02:15.132Z,2.70
2019-03-26T10:04:41.941Z,3.53
2019-03-26T10:07:20.548Z,3.17
2019-03-26T10:09:34.933Z,3.07
2019-03-26T10:12:01.517Z,2.90
2019-03-26T10:14:27.043Z,3.50
2019-03-26T10:16:52.674Z,2.90
2019-03-26T10:19:18.250Z,3.23
2019-03-26T10:21:43.898Z,3.40
2019-03-26T10:24:09.452Z,3.80
2019-03-26T10:26:35.050Z,3.70
2019-03-26T10:29:13.836Z,3.60
2019-03-26T10:31:28.075Z,2.87
2019-03-26T10:33:53.628Z,3.53
2019-03-26T10:36:19.233Z,4.07
2019-03-26T10:38:44.815Z,2.93
2019-03-26T10:41:13.393Z,3.30
2019-03-26T10:43:38.946Z,2.73
2019-03-26T10:46:04.470Z,2.73
2019-03-26T10:48:31.907Z,3.50
2019-03-26T10:50:57.541Z,2.53
2019-03-26T10:53:23.186Z,2.87
2019-03-26T10:55:48.803Z,3.23
2019-03-26T10:58:14.360Z,3.17
2019-03-26T11:00:41.454Z,2.40
2019-03-26T11:03:07.104Z,2.30
2019-03-26T11:05:32.651Z,2.97
2019-03-26T11:07:58.243Z,2.73
2019-03-26T11:10:24.831Z,1.90
2019-03-26T11:12:50.534Z,2.63
2019-03-26T11:15:16.106Z,2.57
2019-03-26T11:17:41.631Z,2.40
2019-03-26T11:20:08.277Z,2.33
2019-03-26T11:22:33.954Z,2.70
2019-03-26T11:24:59.483Z,3.30
2019-03-26T11:27:25.009Z,2.40
2019-03-26T11:29:50.628Z,2.73
2019-03-26T11:32:16.522Z,2.87
2019-03-26T11:34:42.154Z,3.83
2019-03-26T11:37:07.851Z,3.00
2019-03-26T11:39:33.451Z,3.00
2019-03-26T11:41:58.987Z,2.23
2019-03-26T11:44:24.566Z,3.70
2019-03-26T11:46:50.087Z,4.00
2019-03-26T11:49:15.611Z,5.10
2019-03-26T11:51:41.236Z,4.90
2019-03-26T11:54:06.760Z,4.37
2019-03-26T11:56:32.315Z,4.07
2019-03-26T11:58:57.866Z,3.57
2019-03-26T12:01:23.646Z,3.60
2019-03-26T12:03:49.351Z,2.90
2019-03-26T12:06:14.936Z,3.50
2019-03-26T12:08:40.561Z,3.23
2019-03-26T12:11:06.343Z,2.63
2019-03-26T12:13:31.884Z,3.30
2019-03-26T12:15:57.529Z,3.70
2019-03-26T12:18:23.275Z,3.77
2019-03-26T12:20:49.122Z,3.47
2019-03-26T12:23:14.745Z,2.60
2019-03-26T12:25:40.287Z,2.20
2019-03-26T12:28:05.859Z,1.67
2019-03-26T12:30:32.675Z,2.33
2019-03-26T12:32:58.434Z,2.90
2019-03-26T12:35:27.595Z,2.00
2019-03-26T12:37:53.154Z,2.60
2019-03-26T12:40:18.866Z,2.10
2019-03-26T12:42:44.732Z,2.70
2019-03-26T12:45:12.088Z,2.10
2019-03-26T12:47:38.255Z,2.53
2019-03-26T12:50:05.064Z,2.60
2019-03-26T12:52:31.729Z,2.47
2019-03-26T12:54:57.422Z,2.57
2019-03-26T12:57:23.962Z,1.90
2019-03-26T12:59:50.024Z,3.27
2019-03-26T13:02:15.772Z,2.30
2019-03-26T13:04:41.327Z,1.73
2019-03-26T13:07:06.979Z,2.27
2019-03-26T13:09:32.501Z,2.33
2019-03-26T13:11:58.050Z,2.80
2019-03-26T13:14:23.631Z,2.90
2019-03-26T13:16:49.177Z,2.03
2019-03-26T13:19:14.823Z,2.33
2019-03-26T13:21:40.710Z,2.30
2019-03-26T13:24:06.348Z,2.40
2019-03-26T13:26:31.952Z,2.23
2019-03-26T13:28:57.483Z,1.90
2019-03-26T13:31:23.034Z,1.97
2019-03-26T13:33:48.650Z,2.30
2019-03-26T13:36:14.340Z,2.17
2019-03-26T13:38:39.916Z,3.60
2019-03-26T13:41:05.547Z,2.60
2019-03-26T13:43:31.108Z,3.20
2019-03-26T13:45:56.647Z,2.63
2019-03-26T13:48:22.221Z,2.33
2019-03-26T13:50:47.773Z,2.70
2019-03-26T13:53:13.449Z,2.97
2019-03-26T13:55:39.020Z,3.17
2019-03-26T13:58:04.571Z,3.30
2019-03-26T14:00:30.908Z,2.77
2019-03-26T14:02:56.588Z,2.50
2019-03-26T14:05:23.145Z,3.53
2019-03-26T14:07:49.249Z,2.40
2019-03-26T14:10:14.963Z,2.63
2019-03-26T14:12:40.623Z,3.20
2019-03-26T14:15:06.520Z,2.93
2019-03-26T14:17:32.104Z,2.43
2019-03-26T14:19:57.685Z,2.80
2019-03-26T14:22:23.244Z,2.60
2019-03-26T14:24:48.843Z,3.20
2019-03-26T14:27:14.438Z,3.70
2019-03-26T14:29:40.020Z,2.93
2019-03-26T14:32:05.644Z,2.30
2019-03-26T14:34:31.487Z,2.70
2019-03-26T14:36:57.035Z,2.20
2019-03-26T14:39:22.846Z,2.63
2019-03-26T14:41:48.405Z,3.93
2019-03-26T14:44:13.963Z,4.10
2019-03-26T14:46:39.516Z,2.47
2019-03-26T14:49:24.329Z,2.67
2019-03-26T14:51:56.851Z,2.93
2019-03-26T14:54:25.372Z,3.20
2019-03-26T14:56:50.907Z,3.17
2019-03-26T14:59:16.741Z,3.83
2019-03-26T15:01:42.316Z,4.60
2019-03-26T15:04:08.583Z,3.70
2019-03-26T15:06:34.844Z,3.60
2019-03-26T15:09:01.344Z,4.03
2019-03-26T15:11:28.783Z,3.27
2019-03-26T15:13:54.429Z,3.20
2019-03-26T15:16:25.852Z,3.57
2019-03-26T15:18:52.500Z,3.57
2019-03-26T15:21:19.912Z,4.27
2019-03-26T15:23:45.576Z,3.63
2019-03-26T15:26:11.125Z,3.20
2019-03-26T15:28:36.679Z,2.20
2019-03-26T15:31:02.665Z,2.77
2019-03-26T15:33:28.380Z,2.23
2019-03-26T15:35:53.937Z,2.30
2019-03-26T15:38:19.776Z,1.73
2019-03-26T15:40:45.312Z,2.27
2019-03-26T15:43:11.079Z,1.93
2019-03-26T15:45:36.627Z,1.40
2019-03-26T15:48:02.782Z,2.10
2019-03-26T15:50:35.240Z,1.97
2019-03-26T15:53:01.112Z,2.10
2019-03-26T15:55:26.773Z,2.60
2019-03-26T15:57:52.365Z,2.10
2019-03-26T16:00:21.285Z,1.60
2019-03-26T16:02:46.842Z,2.30
2019-03-26T16:05:13.405Z,3.07
2019-03-26T16:07:38.988Z,2.97
2019-03-26T16:10:05.410Z,1.50
2019-03-26T16:12:40.883Z,2.77
2019-03-26T16:15:00.453Z,4.40
2019-03-26T16:17:25.979Z,3.87
2019-03-26T16:19:51.783Z,2.53
2019-03-26T16:22:17.962Z,2.90
2019-03-26T16:24:43.704Z,3.37
2019-03-26T16:27:09.325Z,3.70
2019-03-26T16:29:35.216Z,3.00
2019-03-26T16:32:00.797Z,2.67
2019-03-26T16:34:26.356Z,1.90
2019-03-26T16:36:59.271Z,2.20
2019-03-26T16:39:19.344Z,2.00
2019-03-26T16:41:49.404Z,2.27
2019-03-26T16:44:12.700Z,3.27
2019-03-26T16:46:38.233Z,3.10
2019-03-26T16:49:05.808Z,2.70
2019-03-26T16:51:31.742Z,1.70
2019-03-26T16:54:07.407Z,1.80
2019-03-26T16:56:35.496Z,2.33
2019-03-26T16:59:01.185Z,2.80
2019-03-26T17:01:26.907Z,3.30
2019-03-26T17:03:52.580Z,3.60
2019-03-26T17:06:18.324Z,3.50
2019-03-26T17:08:43.940Z,3.40
2019-03-26T17:11:09.717Z,3.10
2019-03-26T17:13:35.515Z,4.20
2019-03-26T17:16:01.050Z,3.43
2019-03-26T17:18:27.907Z,3.80
2019-03-26T17:20:54.599Z,4.37
2019-03-26T17:23:20.336Z,3.77
2019-03-26T17:25:46.099Z,4.20
2019-03-26T17:28:11.972Z,4.03
2019-03-26T17:30:37.686Z,4.60
2019-03-26T17:33:03.510Z,4.23
2019-03-26T17:35:29.108Z,4.00
2019-03-26T17:37:59.848Z,3.50
2019-03-26T17:40:22.446Z,4.67
2019-03-26T17:42:47.963Z,4.03
2019-03-26T17:45:13.621Z,3.90
2019-03-26T17:47:39.270Z,4.50
2019-03-26T17:50:05.563Z,4.70
2019-03-26T17:52:31.233Z,3.70
2019-03-26T17:54:56.983Z,3.60
2019-03-26T17:57:22.560Z,4.00
2019-03-26T17:59:48.173Z,3.77
2019-03-26T18:02:13.931Z,3.70
2019-03-26T18:04:39.655Z,3.70
2019-03-26T18:07:05.628Z,4.47
2019-03-26T18:09:31.327Z,7.53
2019-03-26T18:11:57.044Z,5.53
2019-03-26T18:14:22.647Z,5.80
2019-03-26T18:16:48.174Z,5.57
2019-03-26T18:19:13.971Z,5.90
2019-03-26T18:21:50.851Z,5.53
2019-03-26T18:24:07.275Z,8.43
2019-03-26T18:26:33.813Z,5.23
2019-03-26T18:28:59.764Z,4.53
2019-03-26T18:31:27.788Z,4.87
2019-03-26T18:33:53.411Z,7.13
2019-03-26T18:36:18.956Z,5.70
2019-03-26T18:38:44.497Z,4.60
2019-03-26T18:41:10.021Z,5.07
2019-03-26T18:43:35.615Z,5.90
2019-03-26T18:46:01.138Z,6.37
2019-03-26T18:48:26.707Z,7.73
2019-03-26T18:50:52.636Z,10.33
2019-03-26T18:53:18.191Z,7.43
2019-03-26T18:55:43.794Z,6.57
2019-03-26T18:58:09.380Z,5.67
2019-03-26T19:00:35.924Z,5.70
2019-03-26T19:03:01.723Z,5.60
2019-03-26T19:05:27.251Z,6.20
2019-03-26T19:07:52.951Z,7.43
2019-03-26T19:10:30.821Z,6.77
2019-03-26T19:12:57.295Z,6.47
2019-03-26T19:15:23.189Z,7.80
2019-03-26T19:17:48.845Z,6.73
2019-03-26T19:20:14.743Z,8.17
2019-03-26T19:22:40.304Z,6.23
2019-03-26T19:25:06.067Z,7.60
2019-03-26T19:27:31.613Z,7.50
2019-03-26T19:29:57.171Z,8.03
2019-03-26T19:32:22.728Z,7.13
2019-03-26T19:34:48.366Z,10.70
2019-03-26T19:37:13.890Z,8.70
2019-03-26T19:39:40.291Z,9.57
2019-03-26T19:42:05.947Z,7.67
2019-03-26T19:44:31.598Z,8.80
2019-03-26T19:46:57.272Z,8.13
2019-03-26T19:49:22.818Z,7.17
2019-03-26T19:51:48.354Z,8.33
2019-03-26T19:54:13.937Z,8.10
2019-03-26T19:56:39.492Z,7.67
2019-03-26T19:59:05.121Z,6.80
2019-03-26T20:01:30.711Z,7.57
2019-03-26T20:03:56.325Z,9.17
2019-03-26T20:06:21.848Z,7.50
2019-03-26T20:08:47.412Z,7.70
2019-03-26T20:11:15.303Z,8.20
2019-03-26T20:13:40.417Z,8.83
2019-03-26T20:16:08.080Z,7.10
2019-03-26T20:18:34.674Z,7.27
2019-03-26T20:21:00.510Z,5.57
2019-03-26T20:23:26.059Z,6.40
2019-03-26T20:25:51.623Z,5.57
2019-03-26T20:28:18.139Z,5.57
2019-03-26T20:30:43.835Z,5.90
2019-03-26T20:33:10.944Z,6.00
2019-03-26T20:35:36.706Z,5.20
2019-03-26T20:38:02.316Z,6.60
2019-03-26T20:40:27.871Z,7.63
2019-03-26T20:42:53.497Z,7.07
2019-03-26T20:45:19.069Z,6.90
2019-03-26T20:47:44.807Z,7.63
2019-03-26T20:50:11.987Z,5.90
2019-03-26T20:52:37.526Z,6.70
2019-03-26T20:55:06.725Z,5.73
2019-03-26T20:57:32.424Z,6.17
2019-03-26T20:59:57.959Z,6.90
2019-03-26T21:02:23.680Z,6.10
2019-03-26T21:04:49.247Z,6.40
2019-03-26T21:07:14.781Z,6.13
2019-03-26T21:09:40.307Z,5.90
2019-03-26T21:12:05.904Z,5.37
2019-03-26T21:14:31.575Z,6.13
2019-03-26T21:16:57.109Z,6.00
2019-03-26T21:19:23.101Z,6.23
2019-03-26T21:21:48.759Z,7.07
2019-03-26T21:24:14.302Z,5.43
2019-03-26T21:26:40.018Z,7.83
2019-03-26T21:29:05.556Z,6.17
2019-03-26T21:31:31.132Z,6.20
2019-03-26T21:33:56.761Z,6.33
2019-03-26T21:36:22.315Z,5.90
2019-03-26T21:38:48.675Z,6.37
2019-03-26T21:41:14.466Z,4.33
2019-03-26T21:43:40.039Z,6.47
2019-03-26T21:46:05.611Z,4.93
2019-03-26T21:48:31.121Z,5.97
2019-03-26T21:50:56.816Z,6.33
2019-03-26T21:53:22.541Z,5.73
2019-03-26T21:55:48.294Z,5.80
2019-03-26T21:58:14.221Z,6.27
2019-03-26T22:00:39.738Z,5.57
2019-03-26T22:03:05.326Z,5.37
2019-03-26T22:05:33.727Z,6.43
2019-03-26T22:07:59.332Z,5.40
2019-03-26T22:10:24.864Z,6.23
2019-03-26T22:12:51.450Z,5.73
2019-03-26T22:15:16.990Z,5.50
2019-03-26T22:17:42.797Z,5.13
2019-03-26T22:20:09.088Z,4.40
2019-03-26T22:22:34.872Z,4.90
2019-03-26T22:25:00.643Z,4.97
2019-03-26T22:27:26.176Z,5.10
2019-03-26T22:29:51.742Z,5.20
2019-03-26T22:32:17.303Z,3.90
2019-03-26T22:34:42.868Z,5.03
2019-03-26T22:37:08.421Z,5.97
2019-03-26T22:39:35.286Z,4.50
2019-03-26T22:42:00.830Z,4.37
2019-03-26T22:44:31.557Z,5.70
2019-03-26T22:46:53.948Z,4.80
2019-03-26T22:49:19.561Z,4.73
2019-03-26T22:51:45.111Z,4.83
2019-03-26T22:54:10.738Z,5.50
2019-03-26T22:56:36.360Z,5.70
2019-03-26T22:59:01.930Z,5.50
2019-03-26T23:01:27.680Z,4.13
2019-03-26T23:03:53.238Z,5.30
2019-03-26T23:06:18.779Z,4.33
2019-03-26T23:08:44.359Z,4.30
2019-03-26T23:11:10.177Z,4.53
2019-03-26T23:13:35.864Z,4.77
2019-03-26T23:16:01.702Z,4.47
2019-03-26T23:18:27.284Z,4.43
2019-03-26T23:20:52.987Z,4.50
2019-03-26T23:23:18.603Z,3.87
2019-03-26T23:25:44.129Z,4.13
2019-03-26T23:28:09.717Z,4.00
2019-03-26T23:30:35.240Z,4.23
2019-03-26T23:33:01.562Z,3.87
2019-03-26T23:35:29.381Z,3.87
2019-03-26T23:37:54.896Z,4.20
2019-03-26T23:40:20.450Z,4.10
2019-03-26T23:42:45.991Z,4.17
2019-03-26T23:45:11.610Z,4.50
2019-03-26T23:47:37.298Z,4.90
2019-03-26T23:50:06.805Z,3.97
2019-03-26T23:52:33.355Z,5.10
2019-03-26T23:54:59.141Z,5.50
2019-03-26T23:57:24.647Z,5.07
2019-03-26T23:59:50.379Z,5.50
